Time;durP1;ratioP1;P1;durP2;ratioP2;P2;SDS_P1;SDS_P2;PMS_P1;PMS_P2;Temp;Humidity;BMP_temperature;BMP_pressure;BME280_temperature;BME280_humidity;BME280_pressure;Samples;Min_cycle;Max_cycle;Signal;HPM_P1;HPM_P2
2024/04/17 00:01:03;;;;;;;13.80;7.60;;;;;;;6.42;57.31;98926.93;111301;1252;21962;-68
2024/04/17 00:03:43;;;;;;;12.70;7.00;;;;;;;6.43;57.30;98928.06;111236;1252;21950;-65
2024/04/17 00:06:13;;;;;;;14.70;6.40;;;;;;;6.41;57.52;98926.48;111272;1252;21915;-66
2024/04/17 00:08:41;;;;;;;13.20;7.70;;;;;;;6.39;57.34;98930.14;111268;1252;22237;-66
2024/04/17 00:11:10;;;;;;;13.90;8.40;;;;;;;6.38;57.40;98930.72;111306;1252;21989;-66
2024/04/17 00:13:39;;;;;;;14.10;8.40;;;;;;;6.35;57.72;98927.61;111282;1252;21959;-66
2024/04/17 00:16:08;;;;;;;16.00;8.70;;;;;;;6.31;57.69;98934.23;111254;1252;21956;-65
2024/04/17 00:18:37;;;;;;;13.60;8.70;;;;;;;6.28;57.83;98932.55;111336;1252;23552;-67
2024/04/17 00:21:06;;;;;;;14.20;8.70;;;;;;;6.24;58.16;98934.25;111269;1252;21962;-67
2024/04/17 00:23:35;;;;;;;19.60;9.30;;;;;;;6.21;58.40;98935.68;111561;1252;21970;-66
2024/04/17 00:26:04;;;;;;;15.00;8.50;;;;;;;6.20;58.62;98938.07;111211;1252;23040;-66
2024/04/17 00:28:32;;;;;;;13.70;7.80;;;;;;;6.18;58.83;98940.80;111230;1252;21954;-66
2024/04/17 00:31:01;;;;;;;10.60;7.30;;;;;;;6.17;58.98;98945.81;111638;1252;21952;-66
2024/04/17 00:33:30;;;;;;;13.40;8.40;;;;;;;6.15;59.33;98946.34;111243;1252;23673;-65
2024/04/17 00:35:59;;;;;;;12.00;8.00;;;;;;;6.11;59.50;98950.42;111329;1242;21950;-65
2024/04/17 00:38:28;;;;;;;10.40;7.20;;;;;;;6.08;59.54;98952.06;111268;1252;21952;-65
2024/04/17 00:40:57;;;;;;;13.20;8.00;;;;;;;6.05;59.94;98952.48;111303;1252;22169;-65
2024/04/17 00:43:27;;;;;;;12.00;8.40;;;;;;;6.06;60.31;98954.50;111375;1252;21956;-65
2024/04/17 00:45:56;;;;;;;13.10;8.40;;;;;;;6.08;60.65;98956.98;111257;1252;23014;-64
2024/04/17 00:48:26;;;;;;;14.30;9.70;;;;;;;6.10;60.76;98960.11;111194;1252;21958;-65
2024/04/17 00:50:57;;;;;;;11.90;9.50;;;;;;;6.13;60.83;98957.84;111161;1252;23569;-65
2024/04/17 00:53:32;;;;;;;15.60;10.10;;;;;;;6.15;61.01;98958.90;110988;1252;185277;-66
2024/04/17 00:56:02;;;;;;;13.90;8.70;;;;;;;6.18;61.24;98959.73;111361;1248;23592;-65
2024/04/17 00:58:31;;;;;;;9.60;7.50;;;;;;;6.21;61.19;98962.98;111368;1252;23643;-65
2024/04/17 01:01:00;;;;;;;11.90;7.10;;;;;;;6.23;61.26;98962.48;111144;1252;21955;-67
2024/04/17 01:03:28;;;;;;;14.20;10.30;;;;;;;6.26;61.42;98965.59;111268;1252;22728;-66
2024/04/17 01:05:58;;;;;;;13.00;8.30;;;;;;;6.27;61.62;98967.05;111352;1252;24299;-66
2024/04/17 01:08:27;;;;;;;17.40;8.40;;;;;;;6.28;61.34;98965.08;111282;1252;21950;-66
2024/04/17 01:11:02;;;;;;;11.90;8.30;;;;;;;6.30;61.42;98965.29;111315;1252;23748;-65
2024/04/17 01:13:31;;;;;;;13.20;7.30;;;;;;;6.33;61.62;98962.47;111170;1252;22752;-65
2024/04/17 01:16:01;;;;;;;15.60;7.90;;;;;;;6.35;61.61;98959.66;111282;1252;21949;-66
2024/04/17 01:18:31;;;;;;;13.20;6.60;;;;;;;6.38;61.65;98958.02;111204;1252;21948;-66
2024/04/17 01:21:03;;;;;;;10.10;7.10;;;;;;;6.40;61.96;98955.42;111118;1252;21955;-66
2024/04/17 01:23:31;;;;;;;;;;;;;;;6.41;62.02;98953.07;111287;1252;22926;-65
2024/04/17 01:26:00;;;;;;;9.10;6.50;;;;;;;6.33;62.08;98950.70;111252;1252;21969;-66
2024/04/17 01:28:29;;;;;;;8.60;6.40;;;;;;;6.32;62.41;98952.00;111234;1252;21984;-67
2024/04/17 01:30:58;;;;;;;7.40;5.00;;;;;;;6.33;62.34;98947.79;111229;1252;21951;-65
2024/04/17 01:33:26;;;;;;;9.70;5.90;;;;;;;6.32;62.38;98943.27;111246;1252;23685;-65
2024/04/17 01:35:55;;;;;;;7.20;5.40;;;;;;;6.32;62.51;98944.70;111211;1252;21952;-65
2024/04/17 01:38:24;;;;;;;7.80;5.90;;;;;;;6.32;62.58;98944.13;111203;1252;21965;-65
2024/04/17 01:40:52;;;;;;;6.20;4.80;;;;;;;6.35;62.87;98946.19;111307;1252;23724;-68
2024/04/17 01:43:21;;;;;;;8.30;5.00;;;;;;;6.33;63.00;98950.86;111282;1252;22057;-65
2024/04/17 01:45:50;;;;;;;5.70;4.90;;;;;;;6.34;62.96;98949.22;111278;1252;21966;-65
2024/04/17 01:48:19;;;;;;;6.90;5.10;;;;;;;6.36;63.31;98954.52;111228;1252;23773;-65
2024/04/17 01:50:48;;;;;;;5.40;4.60;;;;;;;6.39;63.35;98954.09;111205;1252;23730;-66
2024/04/17 01:53:17;;;;;;;6.40;4.90;;;;;;;6.41;63.48;98956.39;111508;1252;23056;-65
2024/04/17 01:55:45;;;;;;;7.30;4.50;;;;;;;6.44;63.42;98960.02;111245;1252;22422;-65
2024/04/17 01:58:14;;;;;;;5.10;4.50;;;;;;;6.46;63.62;98962.29;111318;1252;22929;-68
2024/04/17 02:00:43;;;;;;;6.30;5.10;;;;;;;6.48;63.57;98964.44;111194;1252;23102;-65
2024/04/17 02:03:12;;;;;;;5.40;4.70;;;;;;;6.51;63.36;98962.32;111148;1252;23585;-66
2024/04/17 02:05:41;;;;;;;4.30;3.90;;;;;;;6.51;63.71;98960.73;111284;1252;21952;-67
2024/04/17 02:08:10;;;;;;;6.80;4.90;;;;;;;6.54;63.78;98962.98;111215;1252;23382;-65
2024/04/17 02:10:39;;;;;;;5.80;4.20;;;;;;;6.56;63.67;98962.10;111242;1252;24055;-66
2024/04/17 02:13:08;;;;;;;5.10;4.10;;;;;;;6.57;63.41;98963.09;111205;1252;22127;-67
2024/04/17 02:15:36;;;;;;;4.90;4.10;;;;;;;6.56;63.24;98961.57;111227;1252;22414;-68
2024/04/17 02:18:06;;;;;;;7.20;4.20;;;;;;;6.56;63.31;98958.13;111521;1241;21961;-68
2024/04/17 02:20:34;;;;;;;8.40;4.20;;;;;;;6.57;63.50;98958.01;111429;1252;21988;-68
2024/04/17 02:23:03;;;;;;;4.10;3.70;;;;;;;6.61;63.17;98960.65;111482;1252;24431;-68
2024/04/17 02:25:32;;;;;;;4.30;3.70;;;;;;;6.66;62.96;98963.64;111500;1252;21952;-66
2024/04/17 02:28:01;;;;;;;3.90;3.50;;;;;;;6.68;62.93;98961.38;111339;1240;23010;-67
2024/04/17 02:30:29;;;;;;;4.00;3.60;;;;;;;6.69;62.95;98964.45;111335;1252;23109;-67
2024/04/17 02:32:58;;;;;;;4.40;4.00;;;;;;;6.68;62.61;98962.90;111293;1252;22805;-67
2024/04/17 02:35:27;;;;;;;5.50;3.80;;;;;;;6.67;62.45;98964.10;111125;1252;21953;-69
2024/04/17 02:37:56;;;;;;;3.70;3.30;;;;;;;6.62;62.61;98960.24;111202;1252;23084;-66
2024/04/17 02:40:24;;;;;;;5.40;3.60;;;;;;;6.59;62.60;98957.88;111313;1252;21998;-67
2024/04/17 02:42:53;;;;;;;4.10;3.60;;;;;;;6.56;62.57;98954.45;111207;1252;21967;-66
2024/04/17 02:45:22;;;;;;;4.50;3.60;;;;;;;6.55;62.64;98953.83;111375;1252;21987;-67
2024/04/17 02:47:50;;;;;;;3.60;3.20;;;;;;;6.55;62.64;98957.61;111490;1252;22058;-66
2024/04/17 02:50:19;;;;;;;4.00;3.40;;;;;;;6.56;62.59;98956.52;111201;1252;23102;-66
2024/04/17 02:52:48;;;;;;;5.20;3.60;;;;;;;6.55;62.59;98959.70;111247;1252;22730;-67
2024/04/17 02:55:17;;;;;;;4.10;3.70;;;;;;;6.57;62.61;98962.20;111563;1252;22029;-66
2024/04/17 02:57:45;;;;;;;3.20;2.90;;;;;;;6.58;62.74;98966.88;111562;1252;23119;-66
2024/04/17 03:00:17;;;;;;;5.20;2.70;;;;;;;6.59;62.46;98967.28;111234;1252;21955;-66
2024/04/17 03:02:46;;;;;;;3.30;3.00;;;;;;;6.60;62.28;98974.20;111322;1252;23087;-67
2024/04/17 03:05:15;;;;;;;5.40;3.30;;;;;;;6.59;62.17;98973.77;111303;1252;21952;-66
2024/04/17 03:07:44;;;;;;;3.70;3.30;;;;;;;6.56;62.18;98976.45;111331;1252;23095;-67
2024/04/17 03:10:13;;;;;;;5.50;3.70;;;;;;;6.53;62.20;98977.21;111307;1252;22198;-66
2024/04/17 03:12:42;;;;;;;4.70;3.50;;;;;;;6.50;62.37;98982.14;111250;1252;23611;-67
2024/04/17 03:15:12;;;;;;;4.40;3.90;;;;;;;6.47;62.60;98988.63;111275;1252;21958;-67
2024/04/17 03:17:41;;;;;;;4.10;3.70;;;;;;;6.47;62.57;98987.40;111286;1252;23673;-65
2024/04/17 03:20:10;;;;;;;3.90;3.20;;;;;;;6.47;62.68;98991.41;111305;1251;21948;-65
2024/04/17 03:22:38;;;;;;;4.50;3.90;;;;;;;6.47;62.73;98990.41;111348;1252;21950;-65
2024/04/17 03:25:08;;;;;;;3.80;3.40;;;;;;;6.46;62.83;98990.48;111241;1252;21950;-66
2024/04/17 03:27:37;;;;;;;5.00;3.50;;;;;;;6.46;62.86;98990.78;111298;1252;21958;-66
2024/04/17 03:30:07;;;;;;;5.70;3.80;;;;;;;6.46;62.92;98993.27;111276;1252;21965;-65
2024/04/17 03:32:36;;;;;;;4.30;3.60;;;;;;;6.43;62.70;98992.98;111408;1252;21951;-65
2024/04/17 03:35:05;;;;;;;5.90;4.10;;;;;;;6.39;62.86;98988.73;111339;1252;21950;-65
2024/04/17 03:37:34;;;;;;;5.80;3.90;;;;;;;6.34;62.85;98993.10;111361;1252;21964;-65
2024/04/17 03:40:04;;;;;;;4.80;4.30;;;;;;;6.34;62.96;98993.81;111246;1252;21928;-65
2024/04/17 03:42:33;;;;;;;4.80;4.30;;;;;;;6.31;62.98;98997.34;111249;1252;23682;-66
2024/04/17 03:45:03;;;;;;;5.50;4.40;;;;;;;6.29;62.74;98996.61;111227;1252;22219;-67
2024/04/17 03:47:32;;;;;;;6.80;4.50;;;;;;;6.28;63.20;98995.66;111252;1252;21952;-66
2024/04/17 03:50:04;;;;;;;5.00;4.20;;;;;;;6.28;63.26;99002.30;111593;1252;21954;-65
2024/04/17 03:52:33;;;;;;;8.80;4.80;;;;;;;6.27;63.54;99003.60;111281;1252;23580;-65
2024/04/17 03:55:03;;;;;;;5.90;4.40;;;;;;;6.26;63.83;99006.61;111185;1252;21987;-68
2024/04/17 03:57:31;;;;;;;5.40;4.60;;;;;;;6.27;64.13;99006.23;111269;1252;21959;-66
2024/04/17 04:00:00;;;;;;;5.90;4.30;;;;;;;6.27;64.29;99015.34;111564;1252;21953;-66
2024/04/17 04:02:34;;;;;;;8.30;5.00;;;;;;;6.25;64.74;99017.88;111233;1244;23401;-67
2024/04/17 04:05:03;;;;;;;6.20;4.70;;;;;;;6.25;64.92;99022.98;111188;1252;23717;-66
2024/04/17 04:07:32;;;;;;;7.20;4.50;;;;;;;6.24;65.24;99025.50;111328;1252;21952;-66
2024/04/17 04:10:01;;;;;;;6.60;5.90;;;;;;;6.26;65.44;99027.83;111308;1252;21950;-66
2024/04/17 04:12:29;;;;;;;5.90;5.10;;;;;;;6.28;65.70;99030.84;111199;1252;21952;-67
2024/04/17 04:14:58;;;;;;;5.80;4.80;;;;;;;6.28;65.98;99031.46;111264;1252;21995;-67
2024/04/17 04:17:27;;;;;;;7.10;5.40;;;;;;;6.27;66.13;99035.21;111278;1252;22724;-66
2024/04/17 04:19:56;;;;;;;6.50;5.40;;;;;;;6.26;66.21;99040.91;111337;1252;21949;-67
2024/04/17 04:22:25;;;;;;;6.00;5.40;;;;;;;6.26;66.45;99040.21;111595;1252;22155;-67
2024/04/17 04:24:54;;;;;;;7.30;6.10;;;;;;;6.26;66.90;99041.28;111194;1252;21958;-67
2024/04/17 04:27:23;;;;;;;8.30;6.10;;;;;;;6.28;67.05;99043.20;111076;1251;21973;-67
2024/04/17 04:29:52;;;;;;;10.40;6.30;;;;;;;6.29;67.23;99044.68;111575;1252;21969;-67
2024/04/17 04:32:21;;;;;;;7.00;5.80;;;;;;;6.28;67.40;99046.69;111226;1252;21974;-65
2024/04/17 04:34:50;;;;;;;8.90;6.90;;;;;;;6.29;67.68;99049.22;111309;1252;21949;-65
2024/04/17 04:37:19;;;;;;;8.50;7.20;;;;;;;6.29;67.78;99054.51;111233;1252;23601;-65
2024/04/17 04:39:47;;;;;;;7.10;6.10;;;;;;;6.28;67.66;99055.82;111221;1252;22263;-67
2024/04/17 04:42:16;;;;;;;6.40;5.80;;;;;;;6.26;67.81;99057.88;111205;1252;22034;-65
2024/04/17 04:44:45;;;;;;;8.70;6.50;;;;;;;6.26;68.17;99063.64;111139;1252;24415;-66
2024/04/17 04:47:14;;;;;;;7.90;6.70;;;;;;;6.25;68.38;99064.92;111304;1252;21949;-66
2024/04/17 04:49:45;;;;;;;6.20;5.60;;;;;;;6.20;68.44;99066.31;111273;1252;21951;-66
2024/04/17 04:52:13;;;;;;;6.10;5.30;;;;;;;6.20;68.87;99065.14;111488;1252;21953;-66
2024/04/17 04:54:43;;;;;;;8.30;5.40;;;;;;;6.21;69.23;99064.91;111218;1252;21951;-66
2024/04/17 04:57:12;;;;;;;9.20;6.00;;;;;;;6.20;69.09;99063.90;111291;1248;24186;-66
2024/04/17 04:59:41;;;;;;;6.90;6.20;;;;;;;6.19;69.40;99065.86;111279;1252;21990;-67
2024/04/17 05:02:10;;;;;;;8.20;6.50;;;;;;;6.19;69.53;99065.70;111375;1252;21984;-67
2024/04/17 05:04:39;;;;;;;7.90;5.20;;;;;;;6.20;69.75;99067.40;111234;1252;21961;-66
2024/04/17 05:07:08;;;;;;;8.50;5.30;;;;;;;6.20;69.50;99068.42;111233;1252;21951;-67
2024/04/17 05:09:37;;;;;;;5.60;5.10;;;;;;;6.19;69.82;99068.20;111265;1252;21950;-66
2024/04/17 05:12:06;;;;;;;6.70;6.10;;;;;;;6.20;69.92;99072.48;111144;1252;21953;-65
2024/04/17 05:14:35;;;;;;;8.40;6.10;;;;;;;6.21;70.00;99069.58;111460;1252;21949;-66
2024/04/17 05:17:04;;;;;;;8.30;6.80;;;;;;;6.25;70.04;99071.73;111237;1252;22043;-66
2024/04/17 05:19:33;;;;;;;7.80;7.10;;;;;;;6.27;70.06;99069.80;111270;1252;21952;-66
2024/04/17 05:22:02;;;;;;;8.30;7.60;;;;;;;6.29;70.21;99071.26;111396;1252;21949;-67
2024/04/17 05:24:31;;;;;;;8.70;7.90;;;;;;;6.31;70.26;99068.14;111571;1252;21950;-65
2024/04/17 05:27:00;;;;;;;8.90;8.00;;;;;;;6.33;70.07;99070.61;111232;1252;23573;-66
2024/04/17 05:29:29;;;;;;;11.60;8.20;;;;;;;6.37;70.25;99073.12;111468;1252;21954;-65
2024/04/17 05:31:58;;;;;;;9.40;8.30;;;;;;;6.41;70.50;99071.83;111295;1252;23659;-65
2024/04/17 05:34:28;;;;;;;9.10;7.50;;;;;;;6.43;70.41;99071.83;111079;1252;21957;-66
2024/04/17 05:36:57;;;;;;;8.20;7.30;;;;;;;6.42;70.39;99076.21;111349;1252;23008;-65
2024/04/17 05:39:26;;;;;;;8.60;7.60;;;;;;;6.43;70.15;99079.17;111293;1252;21948;-66
2024/04/17 05:41:55;;;;;;;6.70;6.10;;;;;;;6.43;70.19;99080.05;111281;1252;22048;-65
2024/04/17 05:44:24;;;;;;;8.10;7.30;;;;;;;6.42;70.48;99081.16;111311;1252;21960;-65
2024/04/17 05:46:52;;;;;;;8.20;6.90;;;;;;;6.44;70.44;99084.88;111255;1252;21957;-65
2024/04/17 05:49:22;;;;;;;8.70;7.80;;;;;;;6.44;70.30;99085.36;111289;1252;21965;-66
2024/04/17 05:51:51;;;;;;;7.50;5.60;;;;;;;6.45;70.29;99091.23;111341;1252;23937;-64
2024/04/17 05:54:20;;;;;;;5.40;4.90;;;;;;;6.45;70.36;99092.44;111306;1252;21956;-66
2024/04/17 05:56:50;;;;;;;5.70;5.20;;;;;;;6.49;70.51;99099.34;111322;1252;21952;-64
2024/04/17 05:59:19;;;;;;;6.10;5.50;;;;;;;6.48;70.50;99101.85;111244;1252;21984;-64
2024/04/17 06:01:48;;;;;;;6.20;5.60;;;;;;;6.50;70.57;99105.05;111291;1252;21953;-64
2024/04/17 06:04:16;;;;;;;5.90;5.30;;;;;;;6.52;70.45;99107.20;111319;1252;21958;-65
2024/04/17 06:06:46;;;;;;;7.60;5.80;;;;;;;6.55;70.92;99112.61;111279;1252;21952;-66
2024/04/17 06:09:15;;;;;;;5.90;5.40;;;;;;;6.59;70.97;99115.27;111268;1252;21956;-65
2024/04/17 06:11:43;;;;;;;7.20;6.40;;;;;;;6.60;70.70;99117.14;111318;1252;21961;-66
2024/04/17 06:14:12;;;;;;;6.20;5.60;;;;;;;6.56;71.07;99119.45;111265;1252;21946;-66
2024/04/17 06:16:48;;;;;;;6.50;5.80;;;;;;;6.53;71.12;99120.38;111143;1252;21969;-65
2024/04/17 06:19:19;;;;;;;7.40;6.70;;;;;;;6.51;71.32;99121.23;111138;1252;21948;-66
2024/04/17 06:21:48;;;;;;;8.60;6.50;;;;;;;6.51;71.18;99124.18;111269;1252;21954;-66
2024/04/17 06:24:17;;;;;;;8.90;6.60;;;;;;;6.51;71.52;99123.73;111272;1252;22043;-66
2024/04/17 06:26:49;;;;;;;8.70;7.80;;;;;;;6.52;71.53;99128.20;111245;1252;23000;-66
2024/04/17 06:29:20;;;;;;;11.00;8.80;;;;;;;6.52;71.58;99126.94;111370;1252;21957;-67
2024/04/17 06:31:49;;;;;;;16.20;14.10;;;;;;;6.54;71.73;99130.11;111287;1252;21985;-64
2024/04/17 06:34:18;;;;;;;14.60;13.10;;;;;;;6.59;71.75;99132.91;111296;1245;22939;-66
2024/04/17 06:36:47;;;;;;;13.80;12.50;;;;;;;6.61;71.92;99129.64;111386;1252;22011;-67
2024/04/17 06:39:16;;;;;;;12.40;11.30;;;;;;;6.63;71.73;99133.68;111303;1252;22056;-66
2024/04/17 06:41:45;;;;;;;14.30;13.10;;;;;;;6.65;72.11;99133.16;111267;1252;21955;-68
2024/04/17 06:44:28;;;;;;;15.80;14.30;;;;;;;6.69;72.29;99133.90;111546;1252;21964;-67
2024/04/17 06:46:57;;;;;;;14.60;13.40;;;;;;;6.77;72.27;99143.11;111235;1252;21949;-68
2024/04/17 06:49:27;;;;;;;13.30;12.10;;;;;;;6.83;72.09;99145.98;111219;1252;22930;-68
2024/04/17 06:51:56;;;;;;;13.70;12.50;;;;;;;6.88;72.24;99151.04;111354;1252;23015;-67
2024/04/17 06:54:24;;;;;;;12.40;11.30;;;;;;;6.95;72.14;99152.42;111519;1252;21962;-67
2024/04/17 06:56:53;;;;;;;11.60;10.60;;;;;;;7.04;72.19;99156.20;111482;1252;21960;-68
2024/04/17 06:59:22;;;;;;;12.30;10.40;;;;;;;7.11;72.21;99149.20;111542;1247;21964;-67
2024/04/17 07:01:54;;;;;;;12.60;11.50;;;;;;;7.20;72.44;99153.52;111562;1252;21949;-67
2024/04/17 07:04:23;;;;;;;11.20;10.20;;;;;;;7.31;72.33;99154.87;111524;1252;23670;-67
2024/04/17 07:06:52;;;;;;;11.20;10.20;;;;;;;7.41;71.61;99157.40;111522;1252;23017;-66
2024/04/17 07:09:21;;;;;;;12.10;10.90;;;;;;;7.48;71.11;99160.38;111589;1252;21961;-68
2024/04/17 07:11:50;;;;;;;13.40;12.20;;;;;;;7.53;70.79;99159.52;111553;1252;23481;-68
2024/04/17 07:14:23;;;;;;;13.30;12.00;;;;;;;7.56;70.91;99160.99;111512;1252;23690;-69
2024/04/17 07:16:52;;;;;;;12.80;11.50;;;;;;;7.59;70.72;99161.84;111199;1251;21956;-66
2024/04/17 07:19:24;;;;;;;16.90;13.30;;;;;;;7.59;70.67;99167.23;111365;1252;22033;-66
2024/04/17 07:21:53;;;;;;;18.30;15.10;;;;;;;7.59;70.66;99169.52;111291;1252;22134;-66
2024/04/17 07:24:24;;;;;;;14.20;12.90;;;;;;;7.59;70.78;99169.17;111292;1252;21992;-66
2024/04/17 07:26:53;;;;;;;14.10;12.50;;;;;;;7.61;71.08;99169.94;111279;1252;21961;-66
2024/04/17 07:29:22;;;;;;;11.00;9.80;;;;;;;7.62;71.14;99173.36;111298;1252;23000;-65
2024/04/17 07:31:51;;;;;;;11.10;9.90;;;;;;;7.62;71.11;99175.80;111300;1252;21993;-66
2024/04/17 07:34:21;;;;;;;9.90;8.40;;;;;;;7.60;71.09;99189.44;111315;1252;23598;-66
2024/04/17 07:36:50;;;;;;;7.30;6.50;;;;;;;7.51;70.78;99191.16;111217;1252;21964;-66
2024/04/17 07:39:19;;;;;;;8.40;7.50;;;;;;;7.39;70.69;99196.38;111346;1252;21951;-66
2024/04/17 07:41:49;;;;;;;8.20;7.40;;;;;;;7.24;70.33;99198.97;111242;1252;21960;-66
2024/04/17 07:44:18;;;;;;;8.20;7.30;;;;;;;7.02;70.54;99207.39;111279;1252;21950;-67
2024/04/17 07:46:48;;;;;;;8.60;6.40;;;;;;;6.82;70.80;99217.95;111322;1252;21964;-68
2024/04/17 07:49:18;;;;;;;8.90;6.20;;;;;;;6.66;70.32;99219.34;111327;1248;21983;-69
2024/04/17 07:51:46;;;;;;;13.90;10.10;;;;;;;6.51;70.11;99225.34;111410;1252;23030;-65
2024/04/17 07:54:15;;;;;;;10.40;7.90;;;;;;;6.39;70.40;99221.79;111333;1252;21950;-66
2024/04/17 07:56:44;;;;;;;8.70;6.60;;;;;;;6.31;70.67;99228.09;111337;1252;22753;-66
2024/04/17 07:59:13;;;;;;;14.60;9.00;;;;;;;6.27;70.46;99226.13;111245;1251;21952;-65
2024/04/17 08:01:42;;;;;;;12.40;9.50;;;;;;;6.27;70.64;99225.59;111326;1252;23010;-68
2024/04/17 08:04:11;;;;;;;12.00;9.20;;;;;;;6.27;70.52;99228.00;111272;1252;21949;-66
2024/04/17 08:06:40;;;;;;;11.40;8.80;;;;;;;6.28;70.67;99227.97;111162;1252;21993;-66
2024/04/17 08:09:09;;;;;;;12.70;10.60;;;;;;;6.32;70.77;99228.20;111328;1252;23557;-66
2024/04/17 08:11:38;;;;;;;16.20;11.20;;;;;;;6.38;70.85;99230.75;111323;1252;21953;-66
2024/04/17 08:14:07;;;;;;;11.80;10.60;;;;;;;6.44;70.30;99239.55;111323;1252;21953;-66
2024/04/17 08:16:36;;;;;;;11.30;9.50;;;;;;;6.50;70.31;99240.58;111394;1252;21950;-66
2024/04/17 08:19:05;;;;;;;13.30;10.90;;;;;;;6.56;70.03;99246.59;111336;1252;22747;-66
2024/04/17 08:21:34;;;;;;;13.40;9.80;;;;;;;6.66;69.70;99250.42;111345;1252;21956;-67
2024/04/17 08:24:03;;;;;;;9.90;8.90;;;;;;;6.81;69.78;99255.86;111257;1252;21950;-67
2024/04/17 08:26:32;;;;;;;10.10;9.00;;;;;;;6.87;68.84;99260.28;111285;1252;22001;-66
2024/04/17 08:29:01;;;;;;;10.20;9.20;;;;;;;6.90;68.53;99261.64;111305;1252;21964;-66
2024/04/17 08:31:30;;;;;;;9.60;8.70;;;;;;;6.97;68.45;99263.23;111138;1252;23673;-67
2024/04/17 08:33:59;;;;;;;9.30;8.50;;;;;;;7.06;68.10;99261.55;111238;1252;21958;-66
2024/04/17 08:36:29;;;;;;;8.80;8.00;;;;;;;7.10;67.71;99262.15;111369;1252;21930;-67
2024/04/17 08:38:58;;;;;;;11.50;9.30;;;;;;;7.14;67.99;99261.16;111280;1252;23002;-66
2024/04/17 08:41:34;;;;;;;12.90;10.00;;;;;;;7.20;67.94;99263.32;111325;1252;21953;-66
2024/04/17 08:44:14;;;;;;;9.60;8.70;;;;;;;7.21;67.69;99262.06;111115;1252;21949;-66
2024/04/17 08:46:45;;;;;;;11.60;8.10;;;;;;;7.19;67.22;99266.05;111114;1252;23331;-66
2024/04/17 08:49:16;;;;;;;10.30;9.10;;;;;;;7.16;67.30;99273.96;111239;1252;21960;-66
2024/04/17 08:51:46;;;;;;;12.10;10.80;;;;;;;7.15;67.60;99273.73;111350;1252;22417;-67
2024/04/17 08:54:16;;;;;;;11.90;10.00;;;;;;;7.16;67.70;99281.66;111240;1252;23016;-69
2024/04/17 08:56:44;;;;;;;10.70;8.50;;;;;;;7.15;67.20;99284.52;111474;1252;23506;-70
2024/04/17 08:59:14;;;;;;;9.70;7.90;;;;;;;7.14;66.95;99288.95;111425;1252;21952;-67
2024/04/17 09:01:44;;;;;;;8.00;7.10;;;;;;;7.17;66.98;99291.79;111563;1252;22717;-67
2024/04/17 09:04:14;;;;;;;9.50;7.20;;;;;;;7.17;66.77;99298.20;111587;1252;21916;-69
2024/04/17 09:06:44;;;;;;;11.90;8.00;;;;;;;7.15;66.70;99300.98;111391;1252;23624;-68
2024/04/17 09:09:18;;;;;;;9.00;7.00;;;;;;;7.18;66.72;99303.38;111488;1252;23697;-68
2024/04/17 09:11:50;;;;;;;10.20;7.50;;;;;;;7.23;66.71;99307.07;111402;1252;21963;-68
2024/04/17 09:14:20;;;;;;;10.40;9.40;;;;;;;7.25;66.61;99309.54;111539;1252;23541;-68
2024/04/17 09:16:49;;;;;;;12.40;6.80;;;;;;;7.22;66.05;99310.26;111599;1252;21975;-68
2024/04/17 09:19:18;;;;;;;9.30;6.90;;;;;;;7.22;66.08;99315.23;111414;1252;23602;-68
2024/04/17 09:21:47;;;;;;;8.50;6.10;;;;;;;7.27;66.20;99317.28;111560;1252;23683;-76
2024/04/17 09:24:16;;;;;;;11.30;6.60;;;;;;;7.32;65.71;99319.91;111065;1252;21952;-67
2024/04/17 09:26:45;;;;;;;11.40;7.20;;;;;;;7.34;65.46;99325.84;111548;1252;23561;-68
2024/04/17 09:29:17;;;;;;;20.60;16.20;;;;;;;7.35;65.44;99329.14;111582;1252;23599;-67
2024/04/17 09:31:46;;;;;;;;;;;;;;;7.39;65.42;99332.52;111560;1252;24282;-67
2024/04/17 09:34:18;;;;;;;18.80;16.30;;;;;;;7.35;65.77;99337.37;111698;1252;21976;-67
2024/04/17 09:36:48;;;;;;;;;;;;;;;7.40;65.29;99335.38;111552;1252;21920;-67
2024/04/17 09:39:16;;;;;;;15.80;11.80;;;;;;;7.37;65.09;99339.67;111050;1252;21957;-70
2024/04/17 09:41:46;;;;;;;13.30;10.10;;;;;;;7.42;64.78;99338.77;111334;1252;21965;-68
2024/04/17 09:44:20;;;;;;;8.40;7.60;;;;;;;7.49;64.70;99342.65;111534;1252;22999;-68
2024/04/17 09:46:55;;;;;;;16.10;7.90;;;;;;;7.54;64.39;99344.94;111584;1252;21962;-68
2024/04/17 09:49:28;;;;;;;12.00;7.00;;;;;;;7.57;64.11;99345.42;111583;1252;23557;-68
2024/04/17 09:52:01;;;;;;;12.70;7.30;;;;;;;7.58;64.19;99346.05;111404;1252;21968;-69
2024/04/17 09:54:31;;;;;;;10.90;6.90;;;;;;;7.60;64.26;99348.00;111271;1252;21955;-68
2024/04/17 09:57:02;;;;;;;8.20;6.30;;;;;;;7.61;63.75;99349.64;111512;1252;23570;-68
2024/04/17 09:59:32;;;;;;;11.40;7.30;;;;;;;7.62;63.71;99351.67;111462;1252;23729;-68
2024/04/17 10:02:02;;;;;;;11.10;7.10;;;;;;;7.64;63.37;99351.54;111472;1252;23010;-69
2024/04/17 10:04:32;;;;;;;10.00;7.70;;;;;;;7.66;62.59;99352.77;111582;1252;22418;-66
2024/04/17 10:07:03;;;;;;;11.20;7.10;;;;;;;7.68;62.60;99354.20;111562;1252;22746;-68
2024/04/17 10:09:33;;;;;;;9.40;6.60;;;;;;;7.72;62.44;99350.77;111472;1252;23690;-68
2024/04/17 10:12:03;;;;;;;9.40;7.80;;;;;;;7.79;62.24;99353.23;111465;1252;22781;-69
2024/04/17 10:14:34;;;;;;;8.30;6.50;;;;;;;7.87;62.69;99357.35;111244;1252;21955;-68
2024/04/17 10:17:05;;;;;;;8.60;6.10;;;;;;;7.98;62.82;99357.91;111341;1252;22727;-69
2024/04/17 10:19:53;;;;;;;8.60;5.80;;;;;;;8.07;61.76;99353.76;111405;1252;21958;-68
2024/04/17 10:22:22;;;;;;;8.40;6.80;;;;;;;8.11;61.22;99358.16;111389;1252;22040;-70
2024/04/17 10:24:51;;;;;;;9.80;6.60;;;;;;;8.14;60.90;99358.49;111529;1252;22091;-69
2024/04/17 10:27:21;;;;;;;8.40;5.90;;;;;;;8.21;60.59;99360.88;111531;1252;21953;-69
2024/04/17 10:29:50;;;;;;;14.40;7.20;;;;;;;8.35;60.47;99357.90;111537;1252;21955;-69
2024/04/17 10:32:19;;;;;;;9.30;6.00;;;;;;;8.45;60.08;99359.95;111543;1252;23864;-68
2024/04/17 10:34:51;;;;;;;10.80;5.40;;;;;;;8.57;59.56;99358.04;111521;1252;21954;-70
2024/04/17 10:37:22;;;;;;;8.00;5.40;;;;;;;8.64;59.83;99361.48;111452;1252;22481;-68
2024/04/17 10:39:54;;;;;;;7.00;4.90;;;;;;;8.75;59.84;99360.99;111523;1251;23570;-68
2024/04/17 10:42:23;;;;;;;8.00;5.40;;;;;;;8.86;59.35;99360.42;111390;1252;21961;-69
2024/04/17 10:44:55;;;;;;;8.40;5.50;;;;;;;9.00;58.27;99366.78;111298;1252;22999;-67
2024/04/17 10:47:27;;;;;;;7.00;5.40;;;;;;;9.06;57.38;99367.83;111507;1252;23147;-68
2024/04/17 10:50:02;;;;;;;7.50;6.30;;;;;;;9.08;57.41;99366.45;111604;1252;21955;-68
2024/04/17 10:52:32;;;;;;;7.70;6.70;;;;;;;9.13;57.13;99370.79;111544;1252;21956;-70
2024/04/17 10:55:04;;;;;;;16.40;8.30;;;;;;;9.22;56.93;99373.58;111606;1252;23602;-68
2024/04/17 10:57:33;;;;;;;9.50;7.80;;;;;;;9.36;56.52;99372.77;111608;1252;21958;-68
2024/04/17 11:00:03;;;;;;;6.70;5.90;;;;;;;9.56;55.75;99376.97;111601;1252;23676;-68
2024/04/17 11:02:32;;;;;;;6.80;5.90;;;;;;;9.69;53.87;99382.82;111555;1252;21982;-68
2024/04/17 11:05:01;;;;;;;6.00;4.70;;;;;;;9.69;53.94;99384.33;111581;1252;23663;-69
2024/04/17 11:07:31;;;;;;;8.90;5.90;;;;;;;9.56;53.71;99384.52;111566;1252;23778;-67
2024/04/17 11:09:59;;;;;;;6.90;4.20;;;;;;;9.51;53.37;99389.02;111394;1252;23414;-68
2024/04/17 11:12:28;;;;;;;5.70;4.00;;;;;;;9.46;53.09;99386.01;111532;1252;22165;-69
2024/04/17 11:14:59;;;;;;;10.10;5.90;;;;;;;9.43;53.05;99391.35;111386;1252;22173;-67
2024/04/17 11:17:29;;;;;;;5.60;4.30;;;;;;;9.43;53.26;99393.49;111510;1252;22169;-68
2024/04/17 11:19:58;;;;;;;5.60;4.30;;;;;;;9.41;53.33;99395.58;111523;1252;21968;-69
2024/04/17 11:22:27;;;;;;;6.30;4.20;;;;;;;9.40;53.04;99394.80;111522;1252;23085;-67
2024/04/17 11:25:01;;;;;;;6.20;4.50;;;;;;;9.32;53.13;99397.20;111312;1252;22073;-67
2024/04/17 11:27:30;;;;;;;8.80;5.40;;;;;;;9.23;53.85;99401.80;111555;1245;21962;-67
2024/04/17 11:30:02;;;;;;;5.90;4.50;;;;;;;9.12;54.24;99408.08;111420;1252;21960;-68
2024/04/17 11:32:30;;;;;;;5.10;3.30;;;;;;;9.00;54.90;99406.40;111402;1252;23659;-65
2024/04/17 11:35:14;;;;;;;4.70;3.40;;;;;;;8.88;54.93;99409.77;111202;1252;24324;-66
2024/04/17 11:37:48;;;;;;;7.20;3.90;;;;;;;8.76;54.72;99412.35;111315;1252;23686;-65
2024/04/17 11:40:18;;;;;;;4.80;4.00;;;;;;;8.64;55.05;99419.97;111404;1252;21962;-66